sensor_id;sensor_type;location;lat;lon;timestamp;P1;durP1;ratioP1;P2;durP2;ratioP2
36213;SDS011;37652;50.400;30.628;2023-03-14T00:00:57;9.90;;;4.15;;
36213;SDS011;37652;50.400;30.628;2023-03-14T00:02:58;5.53;;;3.95;;
36213;SDS011;37652;50.400;30.628;2023-03-14T00:04:58;9.27;;;3.72;;
36213;SDS011;37652;50.400;30.628;2023-03-14T00:06:59;4.78;;;3.25;;
36213;SDS011;37652;50.400;30.628;2023-03-14T00:09:00;4.90;;;3.95;;
36213;SDS011;37652;50.400;30.628;2023-03-14T00:11:04;4.72;;;3.70;;
36213;SDS011;37652;50.400;30.628;2023-03-14T00:13:12;6.47;;;3.95;;
36213;SDS011;37652;50.400;30.628;2023-03-14T00:15:13;6.72;;;3.97;;
36213;SDS011;37652;50.400;30.628;2023-03-14T00:17:14;5.50;;;3.97;;
36213;SDS011;37652;50.400;30.628;2023-03-14T00:19:15;5.80;;;4.28;;
36213;SDS011;37652;50.400;30.628;2023-03-14T00:21:15;6.40;;;4.65;;
36213;SDS011;37652;50.400;30.628;2023-03-14T00:23:17;6.60;;;4.80;;
36213;SDS011;37652;50.400;30.628;2023-03-14T00:25:17;5.93;;;3.95;;
36213;SDS011;37652;50.400;30.628;2023-03-14T00:27:18;5.90;;;4.03;;
36213;SDS011;37652;50.400;30.628;2023-03-14T00:29:19;7.25;;;4.57;;
36213;SDS011;37652;50.400;30.628;2023-03-14T00:31:20;6.97;;;4.38;;
36213;SDS011;37652;50.400;30.628;2023-03-14T00:33:20;6.70;;;3.95;;
36213;SDS011;37652;50.400;30.628;2023-03-14T00:35:22;9.80;;;3.80;;
36213;SDS011;37652;50.400;30.628;2023-03-14T00:37:22;5.70;;;4.20;;
36213;SDS011;37652;50.400;30.628;2023-03-14T00:39:23;6.60;;;4.50;;
36213;SDS011;37652;50.400;30.628;2023-03-14T00:41:24;6.32;;;4.70;;
36213;SDS011;37652;50.400;30.628;2023-03-14T00:43:24;8.23;;;4.32;;
36213;SDS011;37652;50.400;30.628;2023-03-14T00:45:25;7.07;;;4.60;;
36213;SDS011;37652;50.400;30.628;2023-03-14T00:47:26;10.60;;;4.57;;
36213;SDS011;37652;50.400;30.628;2023-03-14T00:49:27;7.03;;;4.18;;
36213;SDS011;37652;50.400;30.628;2023-03-14T00:51:27;5.88;;;4.05;;
36213;SDS011;37652;50.400;30.628;2023-03-14T00:53:28;8.43;;;4.35;;
36213;SDS011;37652;50.400;30.628;2023-03-14T00:55:29;5.22;;;4.00;;
36213;SDS011;37652;50.400;30.628;2023-03-14T00:57:29;4.95;;;3.92;;
36213;SDS011;37652;50.400;30.628;2023-03-14T00:59:30;4.82;;;4.00;;
36213;SDS011;37652;50.400;30.628;2023-03-14T01:01:31;5.95;;;4.38;;
36213;SDS011;37652;50.400;30.628;2023-03-14T01:03:31;8.18;;;4.55;;
36213;SDS011;37652;50.400;30.628;2023-03-14T01:05:33;5.40;;;3.90;;
36213;SDS011;37652;50.400;30.628;2023-03-14T01:07:34;6.95;;;4.55;;
36213;SDS011;37652;50.400;30.628;2023-03-14T01:09:34;7.88;;;4.20;;
36213;SDS011;37652;50.400;30.628;2023-03-14T01:11:35;7.28;;;4.47;;
36213;SDS011;37652;50.400;30.628;2023-03-14T01:13:36;4.45;;;3.83;;
36213;SDS011;37652;50.400;30.628;2023-03-14T01:15:37;6.55;;;4.53;;
36213;SDS011;37652;50.400;30.628;2023-03-14T01:17:38;5.60;;;3.70;;
36213;SDS011;37652;50.400;30.628;2023-03-14T01:19:39;7.00;;;4.47;;
36213;SDS011;37652;50.400;30.628;2023-03-14T01:21:40;6.00;;;4.47;;
36213;SDS011;37652;50.400;30.628;2023-03-14T01:23:41;4.47;;;4.07;;
36213;SDS011;37652;50.400;30.628;2023-03-14T01:25:42;5.88;;;4.20;;
36213;SDS011;37652;50.400;30.628;2023-03-14T01:27:43;5.10;;;4.35;;
36213;SDS011;37652;50.400;30.628;2023-03-14T01:29:44;5.07;;;3.83;;
36213;SDS011;37652;50.400;30.628;2023-03-14T01:31:47;5.47;;;4.75;;
36213;SDS011;37652;50.400;30.628;2023-03-14T01:33:48;12.07;;;5.05;;
36213;SDS011;37652;50.400;30.628;2023-03-14T01:35:52;6.78;;;4.25;;
36213;SDS011;37652;50.400;30.628;2023-03-14T01:37:52;6.10;;;4.57;;
36213;SDS011;37652;50.400;30.628;2023-03-14T01:39:53;4.53;;;4.00;;
36213;SDS011;37652;50.400;30.628;2023-03-14T01:41:53;5.85;;;4.38;;
36213;SDS011;37652;50.400;30.628;2023-03-14T01:43:54;6.32;;;4.63;;
36213;SDS011;37652;50.400;30.628;2023-03-14T01:48:05;6.38;;;4.15;;
36213;SDS011;37652;50.400;30.628;2023-03-14T01:50:06;6.80;;;4.55;;
36213;SDS011;37652;50.400;30.628;2023-03-14T01:52:10;5.82;;;4.30;;
36213;SDS011;37652;50.400;30.628;2023-03-14T01:56:30;8.90;;;4.20;;
36213;SDS011;37652;50.400;30.628;2023-03-14T01:58:31;4.93;;;3.80;;
36213;SDS011;37652;50.400;30.628;2023-03-14T02:00:34;5.85;;;4.22;;
36213;SDS011;37652;50.400;30.628;2023-03-14T02:02:35;8.02;;;4.35;;
36213;SDS011;37652;50.400;30.628;2023-03-14T02:04:35;3.90;;;2.67;;
36213;SDS011;37652;50.400;30.628;2023-03-14T02:06:58;6.07;;;4.35;;
36213;SDS011;37652;50.400;30.628;2023-03-14T02:09:05;6.93;;;4.20;;
36213;SDS011;37652;50.400;30.628;2023-03-14T02:11:06;4.75;;;4.25;;
36213;SDS011;37652;50.400;30.628;2023-03-14T02:13:08;6.93;;;4.35;;
36213;SDS011;37652;50.400;30.628;2023-03-14T02:15:09;4.53;;;4.03;;
36213;SDS011;37652;50.400;30.628;2023-03-14T02:17:10;4.78;;;4.00;;
36213;SDS011;37652;50.400;30.628;2023-03-14T02:19:11;5.80;;;4.22;;
36213;SDS011;37652;50.400;30.628;2023-03-14T02:25:53;5.13;;;3.70;;
36213;SDS011;37652;50.400;30.628;2023-03-14T02:28:01;7.93;;;4.82;;
36213;SDS011;37652;50.400;30.628;2023-03-14T02:30:05;7.72;;;4.38;;
36213;SDS011;37652;50.400;30.628;2023-03-14T02:32:11;5.13;;;3.88;;
36213;SDS011;37652;50.400;30.628;2023-03-14T02:34:13;8.70;;;3.70;;
36213;SDS011;37652;50.400;30.628;2023-03-14T02:36:14;5.63;;;3.92;;
36213;SDS011;37652;50.400;30.628;2023-03-14T02:38:27;4.90;;;4.30;;
36213;SDS011;37652;50.400;30.628;2023-03-14T02:40:45;6.13;;;3.92;;
36213;SDS011;37652;50.400;30.628;2023-03-14T02:42:46;8.85;;;3.97;;
36213;SDS011;37652;50.400;30.628;2023-03-14T02:44:48;5.50;;;3.97;;
36213;SDS011;37652;50.400;30.628;2023-03-14T02:46:52;6.55;;;4.10;;
36213;SDS011;37652;50.400;30.628;2023-03-14T02:48:54;7.25;;;4.45;;
36213;SDS011;37652;50.400;30.628;2023-03-14T02:51:01;4.72;;;3.97;;
36213;SDS011;37652;50.400;30.628;2023-03-14T02:53:02;6.90;;;4.35;;
36213;SDS011;37652;50.400;30.628;2023-03-14T02:55:03;5.38;;;3.83;;
36213;SDS011;37652;50.400;30.628;2023-03-14T02:57:05;5.15;;;3.90;;
36213;SDS011;37652;50.400;30.628;2023-03-14T02:59:06;5.18;;;4.07;;
36213;SDS011;37652;50.400;30.628;2023-03-14T03:01:07;4.68;;;4.15;;
36213;SDS011;37652;50.400;30.628;2023-03-14T03:03:07;6.43;;;4.30;;
36213;SDS011;37652;50.400;30.628;2023-03-14T03:05:08;4.63;;;4.05;;
36213;SDS011;37652;50.400;30.628;2023-03-14T03:07:09;5.57;;;4.10;;
36213;SDS011;37652;50.400;30.628;2023-03-14T03:09:09;4.82;;;4.32;;
36213;SDS011;37652;50.400;30.628;2023-03-14T03:11:10;7.15;;;4.70;;
36213;SDS011;37652;50.400;30.628;2023-03-14T03:13:11;7.18;;;4.50;;
36213;SDS011;37652;50.400;30.628;2023-03-14T03:15:12;9.95;;;4.70;;
36213;SDS011;37652;50.400;30.628;2023-03-14T03:17:12;4.85;;;3.17;;
36213;SDS011;37652;50.400;30.628;2023-03-14T03:19:13;4.78;;;4.32;;
36213;SDS011;37652;50.400;30.628;2023-03-14T03:21:14;8.10;;;4.97;;
36213;SDS011;37652;50.400;30.628;2023-03-14T03:23:16;4.82;;;4.32;;
36213;SDS011;37652;50.400;30.628;2023-03-14T03:25:16;7.10;;;4.45;;
36213;SDS011;37652;50.400;30.628;2023-03-14T03:27:17;4.78;;;4.30;;
36213;SDS011;37652;50.400;30.628;2023-03-14T03:29:18;8.43;;;4.25;;
36213;SDS011;37652;50.400;30.628;2023-03-14T03:31:19;7.15;;;4.47;;
36213;SDS011;37652;50.400;30.628;2023-03-14T03:33:19;8.25;;;4.93;;
36213;SDS011;37652;50.400;30.628;2023-03-14T03:35:22;6.22;;;4.03;;
36213;SDS011;37652;50.400;30.628;2023-03-14T03:37:23;5.55;;;4.97;;
36213;SDS011;37652;50.400;30.628;2023-03-14T03:39:24;5.60;;;4.40;;
36213;SDS011;37652;50.400;30.628;2023-03-14T03:41:24;6.07;;;4.60;;
36213;SDS011;37652;50.400;30.628;2023-03-14T03:43:25;7.22;;;4.05;;
36213;SDS011;37652;50.400;30.628;2023-03-14T03:45:26;5.20;;;3.75;;
36213;SDS011;37652;50.400;30.628;2023-03-14T03:47:26;6.22;;;3.88;;
36213;SDS011;37652;50.400;30.628;2023-03-14T03:49:31;4.82;;;4.32;;
36213;SDS011;37652;50.400;30.628;2023-03-14T03:51:32;4.22;;;3.83;;
36213;SDS011;37652;50.400;30.628;2023-03-14T03:53:33;4.90;;;4.25;;
36213;SDS011;37652;50.400;30.628;2023-03-14T03:55:33;5.60;;;4.55;;
36213;SDS011;37652;50.400;30.628;2023-03-14T03:57:34;5.55;;;4.50;;
36213;SDS011;37652;50.400;30.628;2023-03-14T03:59:35;8.40;;;4.20;;
36213;SDS011;37652;50.400;30.628;2023-03-14T04:01:36;6.50;;;3.67;;
36213;SDS011;37652;50.400;30.628;2023-03-14T04:03:37;6.15;;;4.28;;
36213;SDS011;37652;50.400;30.628;2023-03-14T04:05:40;4.65;;;4.15;;
36213;SDS011;37652;50.400;30.628;2023-03-14T04:07:41;4.65;;;4.00;;
36213;SDS011;37652;50.400;30.628;2023-03-14T04:09:42;4.32;;;3.63;;
36213;SDS011;37652;50.400;30.628;2023-03-14T04:11:43;4.68;;;3.63;;
36213;SDS011;37652;50.400;30.628;2023-03-14T04:13:43;5.63;;;4.15;;
36213;SDS011;37652;50.400;30.628;2023-03-14T04:15:44;4.47;;;4.07;;
36213;SDS011;37652;50.400;30.628;2023-03-14T04:17:45;5.22;;;3.78;;
36213;SDS011;37652;50.400;30.628;2023-03-14T04:19:45;4.97;;;4.30;;
36213;SDS011;37652;50.400;30.628;2023-03-14T04:21:49;3.95;;;3.60;;
36213;SDS011;37652;50.400;30.628;2023-03-14T04:23:50;4.35;;;3.95;;
36213;SDS011;37652;50.400;30.628;2023-03-14T04:25:51;7.25;;;4.78;;
36213;SDS011;37652;50.400;30.628;2023-03-14T04:27:52;5.63;;;4.03;;
36213;SDS011;37652;50.400;30.628;2023-03-14T04:29:53;5.50;;;5.00;;
36213;SDS011;37652;50.400;30.628;2023-03-14T04:31:53;4.13;;;3.63;;
36213;SDS011;37652;50.400;30.628;2023-03-14T04:33:54;4.97;;;4.25;;
36213;SDS011;37652;50.400;30.628;2023-03-14T04:35:54;5.47;;;4.05;;
36213;SDS011;37652;50.400;30.628;2023-03-14T04:37:55;5.65;;;3.63;;
36213;SDS011;37652;50.400;30.628;2023-03-14T04:39:56;4.88;;;4.38;;
36213;SDS011;37652;50.400;30.628;2023-03-14T04:41:57;6.05;;;4.65;;
36213;SDS011;37652;50.400;30.628;2023-03-14T04:43:57;6.07;;;4.70;;
36213;SDS011;37652;50.400;30.628;2023-03-14T04:45:58;5.47;;;4.45;;
36213;SDS011;37652;50.400;30.628;2023-03-14T04:47:59;6.43;;;4.60;;
36213;SDS011;37652;50.400;30.628;2023-03-14T04:50:00;6.35;;;4.38;;
36213;SDS011;37652;50.400;30.628;2023-03-14T04:52:00;6.03;;;4.05;;
36213;SDS011;37652;50.400;30.628;2023-03-14T04:54:01;9.40;;;5.00;;
36213;SDS011;37652;50.400;30.628;2023-03-14T04:56:02;4.75;;;4.18;;
36213;SDS011;37652;50.400;30.628;2023-03-14T04:58:03;6.88;;;4.50;;
36213;SDS011;37652;50.400;30.628;2023-03-14T05:00:04;4.50;;;3.95;;
36213;SDS011;37652;50.400;30.628;2023-03-14T05:02:06;4.03;;;3.63;;
36213;SDS011;37652;50.400;30.628;2023-03-14T05:04:07;3.95;;;3.65;;
36213;SDS011;37652;50.400;30.628;2023-03-14T05:06:07;4.57;;;3.53;;
36213;SDS011;37652;50.400;30.628;2023-03-14T05:08:08;5.00;;;3.58;;
36213;SDS011;37652;50.400;30.628;2023-03-14T05:10:09;5.50;;;3.90;;
36213;SDS011;37652;50.400;30.628;2023-03-14T05:12:10;7.82;;;4.13;;
36213;SDS011;37652;50.400;30.628;2023-03-14T05:14:11;4.75;;;3.85;;
36213;SDS011;37652;50.400;30.628;2023-03-14T05:16:11;7.72;;;4.50;;
36213;SDS011;37652;50.400;30.628;2023-03-14T05:18:12;5.25;;;4.20;;
36213;SDS011;37652;50.400;30.628;2023-03-14T05:20:13;4.63;;;3.45;;
36213;SDS011;37652;50.400;30.628;2023-03-14T05:22:14;5.15;;;3.55;;
36213;SDS011;37652;50.400;30.628;2023-03-14T05:24:15;6.53;;;3.95;;
36213;SDS011;37652;50.400;30.628;2023-03-14T05:26:15;3.97;;;3.60;;
36213;SDS011;37652;50.400;30.628;2023-03-14T05:28:16;5.28;;;3.80;;
36213;SDS011;37652;50.400;30.628;2023-03-14T05:30:17;5.68;;;4.07;;
36213;SDS011;37652;50.400;30.628;2023-03-14T05:32:18;5.35;;;3.75;;
36213;SDS011;37652;50.400;30.628;2023-03-14T05:34:18;5.47;;;3.08;;
36213;SDS011;37652;50.400;30.628;2023-03-14T05:36:19;5.20;;;4.50;;
36213;SDS011;37652;50.400;30.628;2023-03-14T05:38:20;5.50;;;3.60;;
36213;SDS011;37652;50.400;30.628;2023-03-14T05:40:22;4.45;;;3.70;;
36213;SDS011;37652;50.400;30.628;2023-03-14T05:42:22;6.00;;;3.80;;
36213;SDS011;37652;50.400;30.628;2023-03-14T05:44:23;4.70;;;3.60;;
36213;SDS011;37652;50.400;30.628;2023-03-14T05:46:24;4.95;;;3.85;;
36213;SDS011;37652;50.400;30.628;2023-03-14T05:48:24;3.92;;;3.47;;
36213;SDS011;37652;50.400;30.628;2023-03-14T05:50:25;4.43;;;3.53;;
36213;SDS011;37652;50.400;30.628;2023-03-14T05:52:26;4.03;;;3.15;;
36213;SDS011;37652;50.400;30.628;2023-03-14T05:54:26;4.30;;;3.38;;
36213;SDS011;37652;50.400;30.628;2023-03-14T05:56:27;3.40;;;3.03;;
36213;SDS011;37652;50.400;30.628;2023-03-14T05:58:28;3.97;;;3.58;;
36213;SDS011;37652;50.400;30.628;2023-03-14T06:00:28;3.03;;;2.58;;
36213;SDS011;37652;50.400;30.628;2023-03-14T06:02:29;6.28;;;3.63;;
36213;SDS011;37652;50.400;30.628;2023-03-14T06:04:30;4.00;;;2.80;;
36213;SDS011;37652;50.400;30.628;2023-03-14T06:06:31;4.55;;;3.08;;
36213;SDS011;37652;50.400;30.628;2023-03-14T06:08:31;5.00;;;3.03;;
36213;SDS011;37652;50.400;30.628;2023-03-14T06:10:32;4.90;;;3.40;;
36213;SDS011;37652;50.400;30.628;2023-03-14T06:12:35;3.05;;;2.75;;
36213;SDS011;37652;50.400;30.628;2023-03-14T06:14:36;5.10;;;3.20;;
36213;SDS011;37652;50.400;30.628;2023-03-14T06:16:37;5.55;;;3.42;;
36213;SDS011;37652;50.400;30.628;2023-03-14T06:18:38;3.42;;;2.92;;
36213;SDS011;37652;50.400;30.628;2023-03-14T06:20:39;3.45;;;3.15;;
36213;SDS011;37652;50.400;30.628;2023-03-14T06:22:40;4.05;;;3.65;;
36213;SDS011;37652;50.400;30.628;2023-03-14T06:24:41;6.97;;;4.20;;
36213;SDS011;37652;50.400;30.628;2023-03-14T06:26:42;6.13;;;3.15;;
36213;SDS011;37652;50.400;30.628;2023-03-14T06:28:43;6.72;;;3.28;;
36213;SDS011;37652;50.400;30.628;2023-03-14T06:30:43;4.72;;;3.58;;
36213;SDS011;37652;50.400;30.628;2023-03-14T06:32:44;4.32;;;3.10;;
36213;SDS011;37652;50.400;30.628;2023-03-14T06:34:45;3.78;;;3.28;;
36213;SDS011;37652;50.400;30.628;2023-03-14T06:36:46;5.07;;;3.58;;
36213;SDS011;37652;50.400;30.628;2023-03-14T06:38:47;5.03;;;3.58;;
36213;SDS011;37652;50.400;30.628;2023-03-14T06:40:47;6.28;;;3.10;;
36213;SDS011;37652;50.400;30.628;2023-03-14T06:42:48;4.03;;;3.53;;
36213;SDS011;37652;50.400;30.628;2023-03-14T06:44:49;5.82;;;3.28;;
36213;SDS011;37652;50.400;30.628;2023-03-14T06:46:49;5.65;;;3.47;;
36213;SDS011;37652;50.400;30.628;2023-03-14T06:48:50;5.15;;;3.63;;
36213;SDS011;37652;50.400;30.628;2023-03-14T06:50:51;4.88;;;3.53;;
36213;SDS011;37652;50.400;30.628;2023-03-14T06:52:51;3.78;;;2.90;;
36213;SDS011;37652;50.400;30.628;2023-03-14T06:54:52;6.15;;;3.85;;
36213;SDS011;37652;50.400;30.628;2023-03-14T06:56:53;6.05;;;3.78;;
36213;SDS011;37652;50.400;30.628;2023-03-14T06:58:53;4.53;;;3.65;;
36213;SDS011;37652;50.400;30.628;2023-03-14T07:00:54;3.97;;;3.47;;
36213;SDS011;37652;50.400;30.628;2023-03-14T07:02:56;4.35;;;3.58;;
36213;SDS011;37652;50.400;30.628;2023-03-14T07:04:57;4.57;;;3.78;;
36213;SDS011;37652;50.400;30.628;2023-03-14T07:06:57;3.72;;;3.33;;
36213;SDS011;37652;50.400;30.628;2023-03-14T07:08:58;5.68;;;2.83;;
36213;SDS011;37652;50.400;30.628;2023-03-14T07:10:59;3.60;;;3.03;;
36213;SDS011;37652;50.400;30.628;2023-03-14T07:13:00;9.73;;;3.45;;
36213;SDS011;37652;50.400;30.628;2023-03-14T07:15:01;3.78;;;3.17;;
36213;SDS011;37652;50.400;30.628;2023-03-14T07:17:01;5.53;;;3.25;;
36213;SDS011;37652;50.400;30.628;2023-03-14T07:19:03;4.00;;;3.53;;
36213;SDS011;37652;50.400;30.628;2023-03-14T07:21:04;5.15;;;3.40;;
36213;SDS011;37652;50.400;30.628;2023-03-14T07:23:12;5.78;;;3.30;;
36213;SDS011;37652;50.400;30.628;2023-03-14T07:25:12;5.50;;;3.63;;
36213;SDS011;37652;50.400;30.628;2023-03-14T07:27:13;6.35;;;3.30;;
36213;SDS011;37652;50.400;30.628;2023-03-14T07:29:14;3.60;;;3.08;;
36213;SDS011;37652;50.400;30.628;2023-03-14T07:31:14;4.45;;;3.80;;
36213;SDS011;37652;50.400;30.628;2023-03-14T07:33:15;4.15;;;3.67;;
36213;SDS011;37652;50.400;30.628;2023-03-14T07:35:16;9.63;;;4.18;;
36213;SDS011;37652;50.400;30.628;2023-03-14T07:37:16;7.93;;;3.63;;
36213;SDS011;37652;50.400;30.628;2023-03-14T07:39:17;3.50;;;3.20;;
36213;SDS011;37652;50.400;30.628;2023-03-14T07:41:18;6.40;;;3.80;;
36213;SDS011;37652;50.400;30.628;2023-03-14T07:43:20;5.55;;;3.63;;
36213;SDS011;37652;50.400;30.628;2023-03-14T07:45:21;5.05;;;3.80;;
36213;SDS011;37652;50.400;30.628;2023-03-14T07:47:22;4.38;;;3.85;;
36213;SDS011;37652;50.400;30.628;2023-03-14T07:49:22;4.32;;;3.60;;
36213;SDS011;37652;50.400;30.628;2023-03-14T07:51:23;5.68;;;3.72;;
36213;SDS011;37652;50.400;30.628;2023-03-14T07:53:24;5.72;;;4.00;;
36213;SDS011;37652;50.400;30.628;2023-03-14T07:55:25;5.45;;;3.67;;
36213;SDS011;37652;50.400;30.628;2023-03-14T07:57:26;8.55;;;3.88;;
36213;SDS011;37652;50.400;30.628;2023-03-14T07:59:27;5.63;;;4.22;;
36213;SDS011;37652;50.400;30.628;2023-03-14T08:01:28;6.57;;;3.78;;
36213;SDS011;37652;50.400;30.628;2023-03-14T08:03:28;5.25;;;3.40;;
36213;SDS011;37652;50.400;30.628;2023-03-14T08:05:29;4.43;;;3.70;;
36213;SDS011;37652;50.400;30.628;2023-03-14T08:07:30;4.25;;;3.15;;
36213;SDS011;37652;50.400;30.628;2023-03-14T08:09:31;10.05;;;4.18;;
36213;SDS011;37652;50.400;30.628;2023-03-14T08:11:32;4.03;;;3.50;;
36213;SDS011;37652;50.400;30.628;2023-03-14T08:13:32;6.50;;;4.82;;
36213;SDS011;37652;50.400;30.628;2023-03-14T08:15:33;4.22;;;3.75;;
36213;SDS011;37652;50.400;30.628;2023-03-14T08:17:34;5.65;;;3.63;;
36213;SDS011;37652;50.400;30.628;2023-03-14T08:19:35;5.25;;;3.60;;
36213;SDS011;37652;50.400;30.628;2023-03-14T08:21:35;4.25;;;3.53;;
36213;SDS011;37652;50.400;30.628;2023-03-14T08:23:36;3.78;;;3.38;;
36213;SDS011;37652;50.400;30.628;2023-03-14T08:25:37;5.35;;;3.97;;
36213;SDS011;37652;50.400;30.628;2023-03-14T08:31:41;4.25;;;3.65;;
36213;SDS011;37652;50.400;30.628;2023-03-14T08:33:42;5.47;;;3.80;;
36213;SDS011;37652;50.400;30.628;2023-03-14T08:35:43;3.95;;;3.20;;
36213;SDS011;37652;50.400;30.628;2023-03-14T08:37:44;4.28;;;3.80;;
36213;SDS011;37652;50.400;30.628;2023-03-14T08:39:44;5.20;;;3.20;;
36213;SDS011;37652;50.400;30.628;2023-03-14T08:41:45;4.40;;;3.45;;
36213;SDS011;37652;50.400;30.628;2023-03-14T08:43:46;4.20;;;3.78;;
36213;SDS011;37652;50.400;30.628;2023-03-14T08:45:46;9.27;;;4.18;;
36213;SDS011;37652;50.400;30.628;2023-03-14T08:47:47;6.60;;;3.90;;
36213;SDS011;37652;50.400;30.628;2023-03-14T08:49:48;3.88;;;3.22;;
36213;SDS011;37652;50.400;30.628;2023-03-14T08:53:49;3.58;;;3.28;;
36213;SDS011;37652;50.400;30.628;2023-03-14T08:55:52;7.93;;;3.95;;
36213;SDS011;37652;50.400;30.628;2023-03-14T08:57:54;9.10;;;3.38;;
36213;SDS011;37652;50.400;30.628;2023-03-14T08:59:55;6.47;;;3.47;;
36213;SDS011;37652;50.400;30.628;2023-03-14T09:01:56;4.05;;;3.40;;
36213;SDS011;37652;50.400;30.628;2023-03-14T09:03:57;4.25;;;3.40;;
36213;SDS011;37652;50.400;30.628;2023-03-14T09:06:01;4.07;;;3.45;;
36213;SDS011;37652;50.400;30.628;2023-03-14T09:08:05;4.65;;;4.03;;
36213;SDS011;37652;50.400;30.628;2023-03-14T09:10:06;6.25;;;4.05;;
36213;SDS011;37652;50.400;30.628;2023-03-14T09:12:07;4.60;;;3.67;;
36213;SDS011;37652;50.400;30.628;2023-03-14T09:14:08;4.10;;;3.70;;
36213;SDS011;37652;50.400;30.628;2023-03-14T09:16:09;5.45;;;3.95;;
36213;SDS011;37652;50.400;30.628;2023-03-14T09:18:09;6.32;;;3.53;;
36213;SDS011;37652;50.400;30.628;2023-03-14T09:20:10;8.23;;;3.65;;
36213;SDS011;37652;50.400;30.628;2023-03-14T09:22:11;3.97;;;3.60;;
36213;SDS011;37652;50.400;30.628;2023-03-14T09:24:12;3.55;;;3.20;;
36213;SDS011;37652;50.400;30.628;2023-03-14T09:26:13;3.70;;;3.17;;
36213;SDS011;37652;50.400;30.628;2023-03-14T09:28:13;4.65;;;3.67;;
36213;SDS011;37652;50.400;30.628;2023-03-14T09:30:14;4.53;;;3.10;;
36213;SDS011;37652;50.400;30.628;2023-03-14T09:32:15;3.33;;;3.03;;
36213;SDS011;37652;50.400;30.628;2023-03-14T09:34:15;4.60;;;3.40;;
36213;SDS011;37652;50.400;30.628;2023-03-14T09:36:16;5.68;;;3.30;;
36213;SDS011;37652;50.400;30.628;2023-03-14T09:38:17;4.57;;;3.65;;
36213;SDS011;37652;50.400;30.628;2023-03-14T09:40:18;4.75;;;2.97;;
36213;SDS011;37652;50.400;30.628;2023-03-14T09:42:21;3.75;;;3.13;;
36213;SDS011;37652;50.400;30.628;2023-03-14T09:44:27;3.50;;;2.90;;
36213;SDS011;37652;50.400;30.628;2023-03-14T09:46:30;5.32;;;3.13;;
36213;SDS011;37652;50.400;30.628;2023-03-14T09:48:33;5.43;;;3.05;;
36213;SDS011;37652;50.400;30.628;2023-03-14T09:50:42;4.90;;;4.38;;
36213;SDS011;37652;50.400;30.628;2023-03-14T09:52:47;5.38;;;3.10;;
36213;SDS011;37652;50.400;30.628;2023-03-14T09:54:52;3.35;;;2.83;;
36213;SDS011;37652;50.400;30.628;2023-03-14T09:56:57;3.40;;;3.10;;
36213;SDS011;37652;50.400;30.628;2023-03-14T09:58:59;4.45;;;2.95;;
36213;SDS011;37652;50.400;30.628;2023-03-14T10:01:03;6.05;;;3.50;;
36213;SDS011;37652;50.400;30.628;2023-03-14T10:05:14;5.75;;;3.20;;
36213;SDS011;37652;50.400;30.628;2023-03-14T10:07:18;3.78;;;3.47;;
36213;SDS011;37652;50.400;30.628;2023-03-14T10:09:22;5.47;;;2.83;;
36213;SDS011;37652;50.400;30.628;2023-03-14T10:11:25;3.13;;;2.75;;
36213;SDS011;37652;50.400;30.628;2023-03-14T10:13:26;5.10;;;3.65;;
36213;SDS011;37652;50.400;30.628;2023-03-14T10:15:34;3.80;;;2.95;;
36213;SDS011;37652;50.400;30.628;2023-03-14T10:17:42;3.42;;;2.90;;
36213;SDS011;37652;50.400;30.628;2023-03-14T10:19:53;4.32;;;2.88;;
36213;SDS011;37652;50.400;30.628;2023-03-14T10:22:01;5.70;;;3.40;;
36213;SDS011;37652;50.400;30.628;2023-03-14T10:24:09;4.40;;;3.20;;
36213;SDS011;37652;50.400;30.628;2023-03-14T10:26:26;4.28;;;3.63;;
36213;SDS011;37652;50.400;30.628;2023-03-14T10:28:29;5.63;;;3.10;;
36213;SDS011;37652;50.400;30.628;2023-03-14T10:32:43;4.65;;;3.22;;
36213;SDS011;37652;50.400;30.628;2023-03-14T10:34:46;3.63;;;3.30;;
36213;SDS011;37652;50.400;30.628;2023-03-14T10:37:22;4.53;;;3.00;;
36213;SDS011;37652;50.400;30.628;2023-03-14T10:39:34;7.32;;;2.97;;
36213;SDS011;37652;50.400;30.628;2023-03-14T10:41:41;3.58;;;3.28;;
36213;SDS011;37652;50.400;30.628;2023-03-14T10:43:54;6.57;;;3.50;;
36213;SDS011;37652;50.400;30.628;2023-03-14T10:45:59;3.78;;;3.25;;
36213;SDS011;37652;50.400;30.628;2023-03-14T10:48:18;3.63;;;3.10;;
36213;SDS011;37652;50.400;30.628;2023-03-14T10:50:47;5.80;;;3.60;;
36213;SDS011;37652;50.400;30.628;2023-03-14T10:52:49;6.25;;;3.15;;
36213;SDS011;37652;50.400;30.628;2023-03-14T10:54:59;3.55;;;3.25;;
36213;SDS011;37652;50.400;30.628;2023-03-14T10:57:03;4.03;;;3.10;;
36213;SDS011;37652;50.400;30.628;2023-03-14T10:59:07;3.50;;;3.03;;
36213;SDS011;37652;50.400;30.628;2023-03-14T11:10:48;4.40;;;2.28;;
36213;SDS011;37652;50.400;30.628;2023-03-14T11:17:02;2.50;;;2.30;;
36213;SDS011;37652;50.400;30.628;2023-03-14T11:19:20;5.10;;;2.67;;
36213;SDS011;37652;50.400;30.628;2023-03-14T11:28:50;3.63;;;2.63;;
36213;SDS011;37652;50.400;30.628;2023-03-14T11:31:15;6.70;;;2.97;;
36213;SDS011;37652;50.400;30.628;2023-03-14T11:33:38;2.25;;;2.00;;
36213;SDS011;37652;50.400;30.628;2023-03-14T11:36:02;4.00;;;2.38;;
36213;SDS011;37652;50.400;30.628;2023-03-14T11:40:39;5.05;;;2.15;;
36213;SDS011;37652;50.400;30.628;2023-03-14T11:42:43;6.40;;;2.20;;
36213;SDS011;37652;50.400;30.628;2023-03-14T11:44:46;4.97;;;2.38;;
36213;SDS011;37652;50.400;30.628;2023-03-14T11:46:53;3.35;;;2.20;;
36213;SDS011;37652;50.400;30.628;2023-03-14T11:49:14;6.95;;;2.63;;
36213;SDS011;37652;50.400;30.628;2023-03-14T11:51:27;2.45;;;1.95;;
36213;SDS011;37652;50.400;30.628;2023-03-14T11:55:43;2.63;;;2.00;;
36213;SDS011;37652;50.400;30.628;2023-03-14T11:57:46;5.63;;;2.05;;
36213;SDS011;37652;50.400;30.628;2023-03-14T11:59:51;2.25;;;1.70;;
36213;SDS011;37652;50.400;30.628;2023-03-14T12:01:57;1.98;;;1.75;;
36213;SDS011;37652;50.400;30.628;2023-03-14T12:04:18;2.38;;;1.75;;
36213;SDS011;37652;50.400;30.628;2023-03-14T12:06:51;1.70;;;1.60;;
36213;SDS011;37652;50.400;30.628;2023-03-14T12:13:40;1.95;;;1.75;;
36213;SDS011;37652;50.400;30.628;2023-03-14T12:15:55;2.95;;;2.22;;
36213;SDS011;37652;50.400;30.628;2023-03-14T12:18:01;1.92;;;1.38;;
36213;SDS011;37652;50.400;30.628;2023-03-14T12:24:31;2.65;;;1.33;;
36213;SDS011;37652;50.400;30.628;2023-03-14T12:26:57;2.55;;;1.55;;
36213;SDS011;37652;50.400;30.628;2023-03-14T12:35:38;2.10;;;1.50;;
36213;SDS011;37652;50.400;30.628;2023-03-14T12:37:44;2.83;;;1.42;;
36213;SDS011;37652;50.400;30.628;2023-03-14T12:46:30;1.25;;;1.15;;
36213;SDS011;37652;50.400;30.628;2023-03-14T12:48:31;2.28;;;1.35;;
36213;SDS011;37652;50.400;30.628;2023-03-14T12:50:36;1.58;;;1.10;;
36213;SDS011;37652;50.400;30.628;2023-03-14T12:52:50;4.15;;;1.40;;
36213;SDS011;37652;50.400;30.628;2023-03-14T12:55:15;1.83;;;1.20;;
36213;SDS011;37652;50.400;30.628;2023-03-14T13:04:47;5.40;;;1.40;;
36213;SDS011;37652;50.400;30.628;2023-03-14T13:07:11;2.45;;;1.40;;
36213;SDS011;37652;50.400;30.628;2023-03-14T13:11:29;3.88;;;1.63;;
36213;SDS011;37652;50.400;30.628;2023-03-14T13:13:34;4.07;;;1.65;;
36213;SDS011;37652;50.400;30.628;2023-03-14T13:15:41;1.50;;;1.10;;
36213;SDS011;37652;50.400;30.628;2023-03-14T13:17:43;4.10;;;1.30;;
36213;SDS011;37652;50.400;30.628;2023-03-14T13:19:48;3.83;;;1.45;;
36213;SDS011;37652;50.400;30.628;2023-03-14T13:22:05;2.20;;;1.38;;
36213;SDS011;37652;50.400;30.628;2023-03-14T13:24:22;2.90;;;1.30;;
36213;SDS011;37652;50.400;30.628;2023-03-14T13:26:25;4.20;;;1.10;;